Time;durP1;ratioP1;P1;durP2;ratioP2;P2;SDS_P1;SDS_P2;PMS_P1;PMS_P2;Temp;Humidity;BMP_temperature;BMP_pressure;BME280_temperature;BME280_humidity;BME280_pressure;Samples;Min_cycle;Max_cycle;Signal;HPM_P1;HPM_P2
2023/11/25 00:00:22;;;;;;;2.60;1.00;;;1.60;99.90;;;;;;5058708;28;20212;-54
2023/11/25 00:02:49;;;;;;;6.53;0.87;;;1.60;99.90;;;;;;5044545;28;20214;-52
2023/11/25 00:05:16;;;;;;;4.00;1.00;;;1.60;99.90;;;;;;5061558;28;20574;-54
2023/11/25 00:07:44;;;;;;;4.87;1.37;;;1.60;99.90;;;;;;5052018;28;20962;-51
2023/11/25 00:10:12;;;;;;;3.93;1.07;;;1.60;99.90;;;;;;5034508;28;20307;-52
2023/11/25 00:12:39;;;;;;;3.40;0.97;;;1.60;99.90;;;;;;5048547;28;20235;-53
2023/11/25 00:15:08;;;;;;;4.33;0.93;;;1.60;99.90;;;;;;5061438;28;20190;-56
2023/11/25 00:17:35;;;;;;;2.80;1.00;;;1.60;99.90;;;;;;5047361;28;20363;-55
2023/11/25 00:20:04;;;;;;;6.30;1.27;;;1.60;99.90;;;;;;5060849;28;20207;-48
2023/11/25 00:22:31;;;;;;;1.33;0.57;;;1.60;99.90;;;;;;5055688;28;20199;-53
2023/11/25 00:24:58;;;;;;;3.13;0.90;;;1.60;99.90;;;;;;5032093;28;20704;-50
2023/11/25 00:27:25;;;;;;;3.93;0.70;;;1.50;99.90;;;;;;5059247;28;20604;-54
2023/11/25 00:29:52;;;;;;;4.07;0.60;;;1.50;99.90;;;;;;5058273;28;20198;-51
2023/11/25 00:32:20;;;;;;;5.67;0.97;;;1.50;99.90;;;;;;5062955;28;20256;-50
2023/11/25 00:34:47;;;;;;;1.47;0.40;;;1.50;99.90;;;;;;5052683;28;21026;-54
2023/11/25 00:37:13;;;;;;;3.97;0.90;;;1.50;99.90;;;;;;5056977;28;20226;-51
2023/11/25 00:39:40;;;;;;;2.00;0.60;;;1.40;99.90;;;;;;5030590;28;20254;-49
2023/11/25 00:42:07;;;;;;;4.37;0.63;;;1.40;99.90;;;;;;5057905;28;20678;-53
2023/11/25 00:44:34;;;;;;;1.57;0.80;;;1.40;99.90;;;;;;5052323;28;20215;-52
2023/11/25 00:47:02;;;;;;;3.17;0.80;;;1.40;99.90;;;;;;5063527;28;20191;-50
2023/11/25 00:49:32;;;;;;;4.27;1.23;;;1.40;99.90;;;;;;5042469;28;20196;-53
2023/11/25 00:51:59;;;;;;;4.30;0.80;;;1.30;99.90;;;;;;5064456;28;20234;-49
2023/11/25 00:54:26;;;;;;;4.10;0.70;;;1.30;99.90;;;;;;5056015;28;20647;-50
2023/11/25 00:56:53;;;;;;;5.93;1.13;;;1.30;99.90;;;;;;5036154;28;20214;-52
2023/11/25 00:59:21;;;;;;;4.97;0.97;;;1.20;99.90;;;;;;5055086;28;20222;-54
2023/11/25 01:01:48;;;;;;;3.27;0.70;;;1.20;99.90;;;;;;5061833;28;20195;-51
2023/11/25 01:04:15;;;;;;;5.87;1.03;;;1.20;99.90;;;;;;5052013;28;20218;-52
2023/11/25 01:06:46;;;;;;;3.73;0.80;;;1.10;99.90;;;;;;5062564;28;20280;-50
2023/11/25 01:09:15;;;;;;;2.63;0.80;;;1.10;99.90;;;;;;5054568;28;20291;-50
2023/11/25 01:11:42;;;;;;;1.50;0.63;;;1.00;99.90;;;;;;5034780;28;20214;-49
2023/11/25 01:14:09;;;;;;;1.83;0.70;;;1.00;99.90;;;;;;5054978;28;20210;-49
2023/11/25 01:16:36;;;;;;;2.20;0.80;;;0.90;99.90;;;;;;5059885;28;20272;-50
2023/11/25 01:19:03;;;;;;;2.63;0.80;;;0.90;99.90;;;;;;5058465;28;20207;-50
2023/11/25 01:21:30;;;;;;;4.93;0.90;;;0.80;99.90;;;;;;5056725;28;20699;-49
2023/11/25 01:23:59;;;;;;;2.90;0.87;;;0.80;99.90;;;;;;5063553;28;20214;-50
2023/11/25 01:26:26;;;;;;;3.30;1.07;;;0.80;99.90;;;;;;5059411;28;20248;-51
2023/11/25 01:28:52;;;;;;;4.17;1.20;;;0.80;99.90;;;;;;5033565;28;20222;-56
2023/11/25 01:31:19;;;;;;;2.20;0.87;;;0.80;99.90;;;;;;5050983;28;20867;-53
2023/11/25 01:33:47;;;;;;;3.10;0.90;;;0.80;99.90;;;;;;5062987;28;20210;-51
2023/11/25 01:36:13;;;;;;;6.80;1.03;;;0.80;99.90;;;;;;5050608;28;20219;-56
2023/11/25 01:38:40;;;;;;;4.53;1.00;;;0.80;99.90;;;;;;5062563;28;20225;-50
2023/11/25 01:41:08;;;;;;;5.97;1.40;;;0.80;99.90;;;;;;5061686;28;20202;-51
2023/11/25 01:43:35;;;;;;;2.57;0.90;;;0.80;99.90;;;;;;5033125;28;20230;-54
2023/11/25 01:46:04;;;;;;;2.53;0.80;;;0.80;99.90;;;;;;5053834;28;20209;-54
2023/11/25 01:48:31;;;;;;;4.00;0.80;;;0.70;99.90;;;;;;5060511;28;20256;-52
2023/11/25 01:51:00;;;;;;;3.60;1.10;;;0.80;99.90;;;;;;5052117;28;20199;-51
2023/11/25 01:53:28;;;;;;;2.73;1.20;;;0.80;99.90;;;;;;5059503;28;20409;-54
2023/11/25 01:55:57;;;;;;;4.63;1.00;;;0.70;99.90;;;;;;5061576;28;20632;-51
2023/11/25 01:58:26;;;;;;;1.50;0.90;;;0.70;99.90;;;;;;5057952;28;20277;-54
2023/11/25 02:00:53;;;;;;;5.10;0.77;;;0.80;99.90;;;;;;5030287;28;20210;-53
2023/11/25 02:03:20;;;;;;;5.23;0.87;;;0.70;99.90;;;;;;5049365;28;20218;-49
2023/11/25 02:05:47;;;;;;;3.43;0.83;;;0.70;99.90;;;;;;5061456;28;20256;-51
2023/11/25 02:08:14;;;;;;;3.10;0.93;;;0.70;99.90;;;;;;5047661;28;20657;-54
2023/11/25 02:10:41;;;;;;;3.97;1.03;;;0.70;99.90;;;;;;5062208;28;20202;-48
2023/11/25 02:13:09;;;;;;;1.73;0.77;;;0.70;99.90;;;;;;5057976;28;20632;-54
2023/11/25 02:15:38;;;;;;;3.67;0.80;;;0.60;99.90;;;;;;5029830;28;22218;-48
2023/11/25 02:18:05;;;;;;;2.30;0.73;;;0.60;99.90;;;;;;5050781;28;20569;-56
2023/11/25 02:20:35;;;;;;;4.47;1.10;;;0.60;99.90;;;;;;5059526;28;20778;-52
2023/11/25 02:23:04;;;;;;;2.47;0.60;;;0.60;99.90;;;;;;5049506;28;20766;-53
2023/11/25 02:25:32;;;;;;;4.33;0.70;;;0.60;99.90;;;;;;5058161;28;20190;-49
2023/11/25 02:27:59;;;;;;;2.47;0.80;;;0.60;99.90;;;;;;5061719;28;20660;-54
2023/11/25 02:30:26;;;;;;;4.47;1.07;;;0.60;99.90;;;;;;5029960;28;20336;-52
2023/11/25 02:32:54;;;;;;;3.23;0.77;;;0.60;99.90;;;;;;5052013;28;20210;-49
2023/11/25 02:35:21;;;;;;;3.23;1.10;;;0.60;99.90;;;;;;5058700;28;20191;-54
2023/11/25 02:37:49;;;;;;;5.27;1.53;;;0.70;99.90;;;;;;5050479;28;20207;-53
2023/11/25 02:40:18;;;;;;;3.53;1.17;;;0.70;99.90;;;;;;5057006;28;20202;-52
2023/11/25 02:42:47;;;;;;;2.30;0.70;;;0.70;99.90;;;;;;5060022;28;20214;-51
2023/11/25 02:45:19;;;;;;;1.10;0.50;;;0.70;99.90;;;;;;5057772;28;20691;-56
2023/11/25 02:47:46;;;;;;;1.77;0.70;;;0.80;99.90;;;;;;5023585;28;20665;-53
2023/11/25 02:50:14;;;;;;;3.93;0.90;;;0.80;99.90;;;;;;5059162;28;20218;-55
2023/11/25 02:52:41;;;;;;;6.07;1.37;;;0.80;99.90;;;;;;5049071;28;20277;-55
2023/11/25 02:55:10;;;;;;;2.73;0.87;;;0.80;99.90;;;;;;5058882;28;20283;-51
2023/11/25 02:57:42;;;;;;;0.97;0.60;;;0.90;99.90;;;;;;5058367;28;20222;-55
2023/11/25 03:00:17;;;;;;;1.33;0.63;;;0.90;99.90;;;;;;5058117;28;20197;-51
2023/11/25 03:02:44;;;;;;;2.43;0.80;;;0.90;99.90;;;;;;5024908;28;20209;-52
2023/11/25 03:05:13;;;;;;;1.90;0.60;;;0.90;99.90;;;;;;5056623;28;20214;-52
2023/11/25 03:07:40;;;;;;;3.13;0.90;;;0.90;99.90;;;;;;5054158;28;20195;-50
2023/11/25 03:10:09;;;;;;;6.37;1.07;;;0.90;99.90;;;;;;5055155;28;20879;-47
2023/11/25 03:12:36;;;;;;;3.50;1.10;;;1.00;99.90;;;;;;5058890;28;20285;-55
2023/11/25 03:15:04;;;;;;;4.23;0.70;;;1.00;99.90;;;;;;5057826;28;20811;-48
2023/11/25 03:17:31;;;;;;;5.83;1.37;;;1.00;99.90;;;;;;5031414;28;20654;-53
2023/11/25 03:19:58;;;;;;;4.63;1.33;;;1.00;99.90;;;;;;5036791;28;20252;-47
2023/11/25 03:22:25;;;;;;;3.67;0.93;;;1.00;99.90;;;;;;5058086;28;20205;-56
2023/11/25 03:24:52;;;;;;;3.80;0.80;;;1.00;99.90;;;;;;5047013;28;20226;-47
2023/11/25 03:27:19;;;;;;;4.23;0.70;;;1.00;99.90;;;;;;5060726;28;20183;-53
2023/11/25 03:29:46;;;;;;;0.77;0.60;;;1.00;99.90;;;;;;5058055;28;20964;-47
2023/11/25 03:32:15;;;;;;;2.33;0.80;;;1.10;99.90;;;;;;5058234;28;20191;-48
2023/11/25 03:34:42;;;;;;;2.20;0.70;;;1.10;99.90;;;;;;5012509;28;20903;-51
2023/11/25 03:37:09;;;;;;;2.97;0.70;;;1.10;99.90;;;;;;5060849;28;20226;-47
2023/11/25 03:39:36;;;;;;;1.83;0.77;;;1.10;99.90;;;;;;5047072;28;20218;-55
2023/11/25 03:42:05;;;;;;;2.93;0.57;;;1.10;99.90;;;;;;5061306;28;20201;-47
2023/11/25 03:44:32;;;;;;;1.50;0.30;;;1.10;99.90;;;;;;5058684;28;20232;-56
2023/11/25 03:46:58;;;;;;;1.83;0.47;;;1.20;99.90;;;;;;5060468;28;20190;-48
2023/11/25 03:49:27;;;;;;;1.43;0.60;;;1.20;99.90;;;;;;5028599;28;20229;-57
2023/11/25 03:51:54;;;;;;;4.93;0.70;;;1.20;99.90;;;;;;5041112;28;20276;-55
2023/11/25 03:54:21;;;;;;;3.17;0.90;;;1.30;99.90;;;;;;5063491;28;22235;-46
2023/11/25 03:56:48;;;;;;;4.17;1.03;;;1.30;99.90;;;;;;5054712;28;20245;-55
2023/11/25 03:59:15;;;;;;;3.30;0.90;;;1.30;99.90;;;;;;5061586;28;20198;-48
2023/11/25 04:01:44;;;;;;;2.63;0.60;;;1.40;99.90;;;;;;5064220;28;20178;-49
2023/11/25 04:04:11;;;;;;;2.83;0.70;;;1.50;99.90;;;;;;5030977;28;20230;-47
2023/11/25 04:06:40;;;;;;;4.67;0.70;;;1.60;99.90;;;;;;5055305;28;20195;-50
2023/11/25 04:09:06;;;;;;;4.67;0.90;;;1.70;99.90;;;;;;5049359;28;20205;-50
2023/11/25 04:11:33;;;;;;;4.70;1.00;;;1.70;99.90;;;;;;5065194;28;20199;-47
2023/11/25 04:14:00;;;;;;;1.80;0.60;;;1.70;99.90;;;;;;5059107;28;20890;-52
2023/11/25 04:16:27;;;;;;;8.33;0.87;;;1.70;99.90;;;;;;5064749;28;20715;-52
2023/11/25 04:18:54;;;;;;;3.03;1.10;;;1.70;99.90;;;;;;5062440;28;20223;-53
2023/11/25 04:21:22;;;;;;;2.30;1.03;;;1.70;99.90;;;;;;5032237;28;20202;-49
2023/11/25 04:23:52;;;;;;;4.77;0.80;;;1.70;99.90;;;;;;5054041;28;20214;-57
2023/11/25 04:26:20;;;;;;;6.10;0.97;;;1.70;99.90;;;;;;5052190;28;20868;-50
2023/11/25 04:28:47;;;;;;;3.83;0.70;;;1.70;99.90;;;;;;5063450;28;20187;-57
2023/11/25 04:31:14;;;;;;;3.40;0.63;;;1.70;99.90;;;;;;5062258;28;20280;-52
2023/11/25 04:33:41;;;;;;;4.47;1.10;;;1.70;99.90;;;;;;5064257;28;20221;-52
2023/11/25 04:36:09;;;;;;;5.70;0.90;;;1.70;99.90;;;;;;5033082;28;20218;-51
2023/11/25 04:38:36;;;;;;;4.07;0.70;;;1.70;99.90;;;;;;5056246;28;20716;-48
2023/11/25 04:41:04;;;;;;;3.03;0.90;;;1.70;99.90;;;;;;5049715;28;20203;-54
2023/11/25 04:43:31;;;;;;;4.10;0.60;;;1.70;99.90;;;;;;5064087;28;20222;-48
2023/11/25 04:46:01;;;;;;;1.40;0.63;;;1.70;99.90;;;;;;5061324;28;20186;-57
2023/11/25 04:48:28;;;;;;;3.60;1.00;;;1.70;99.90;;;;;;5064289;28;20268;-50
2023/11/25 04:50:55;;;;;;;3.20;1.00;;;1.70;99.90;;;;;;5061685;28;20206;-60
2023/11/25 04:53:22;;;;;;;3.20;1.00;;;1.70;99.90;;;;;;5035645;28;20218;-55
2023/11/25 04:55:49;;;;;;;5.77;1.33;;;1.70;99.90;;;;;;5059732;28;20195;-58
2023/11/25 04:58:18;;;;;;;6.43;1.10;;;1.70;99.90;;;;;;5056304;28;20217;-52
2023/11/25 05:00:45;;;;;;;5.03;1.30;;;1.70;99.90;;;;;;5063582;28;20195;-57
2023/11/25 05:03:12;;;;;;;4.77;1.00;;;1.70;99.90;;;;;;5061061;28;20281;-52
2023/11/25 05:05:39;;;;;;;2.50;0.77;;;1.70;99.90;;;;;;5063810;28;20618;-51
2023/11/25 05:08:07;;;;;;;3.93;1.20;;;1.70;99.90;;;;;;5029265;28;20199;-51
2023/11/25 05:10:34;;;;;;;5.67;0.97;;;1.80;99.90;;;;;;5062710;28;20210;-51
2023/11/25 05:13:01;;;;;;;1.80;0.70;;;1.80;99.90;;;;;;5049660;28;20234;-56
2023/11/25 05:15:29;;;;;;;2.30;1.00;;;1.80;99.90;;;;;;5064085;28;20619;-47
2023/11/25 05:17:56;;;;;;;5.80;0.87;;;1.90;99.90;;;;;;5061454;28;20206;-58
2023/11/25 05:20:23;;;;;;;5.10;1.03;;;1.90;99.90;;;;;;5064197;28;20195;-48
2023/11/25 05:22:49;;;;;;;4.90;1.00;;;1.90;99.90;;;;;;5050750;28;20195;-57
2023/11/25 05:25:17;;;;;;;2.63;1.10;;;2.00;99.90;;;;;;5035776;28;20206;-51
2023/11/25 05:27:44;;;;;;;4.23;0.93;;;2.00;99.90;;;;;;5052264;28;20259;-57
2023/11/25 05:30:13;;;;;;;6.17;1.30;;;2.10;99.90;;;;;;5060846;28;20203;-50
2023/11/25 05:32:42;;;;;;;2.80;0.60;;;2.10;99.90;;;;;;5060809;28;20198;-54
2023/11/25 05:35:09;;;;;;;3.53;0.87;;;2.10;99.90;;;;;;5062249;28;20191;-53
2023/11/25 05:37:36;;;;;;;6.97;1.13;;;2.20;99.90;;;;;;5062379;28;20206;-57
2023/11/25 05:40:08;;;;;;;4.60;1.00;;;2.20;99.90;;;;;;5033236;28;20352;-50
2023/11/25 05:42:37;;;;;;;7.90;0.90;;;2.20;99.90;;;;;;5059613;28;20274;-56
2023/11/25 05:45:06;;;;;;;3.23;0.80;;;2.30;99.90;;;;;;5056299;28;20884;-49
2023/11/25 05:47:33;;;;;;;6.23;0.57;;;2.30;99.90;;;;;;5048937;28;20257;-56
2023/11/25 05:50:03;;;;;;;7.23;1.00;;;2.30;99.90;;;;;;5060890;28;20191;-51
2023/11/25 05:52:29;;;;;;;6.47;1.40;;;2.30;99.90;;;;;;5057329;28;20844;-52
2023/11/25 05:54:56;;;;;;;2.87;0.90;;;2.30;99.90;;;;;;5031663;28;20728;-52
2023/11/25 05:57:23;;;;;;;3.03;0.90;;;2.30;99.90;;;;;;5054635;28;20198;-54
2023/11/25 05:59:50;;;;;;;6.40;1.00;;;2.30;99.90;;;;;;5050701;28;20187;-50
2023/11/25 06:02:17;;;;;;;5.87;0.80;;;2.30;99.90;;;;;;5055248;28;20199;-52
2023/11/25 06:04:44;;;;;;;5.30;0.97;;;2.30;99.90;;;;;;5058959;28;20203;-53
2023/11/25 06:07:12;;;;;;;4.07;0.80;;;2.30;99.90;;;;;;5056617;28;20214;-49
2023/11/25 06:09:39;;;;;;;4.50;0.87;;;2.30;99.90;;;;;;5034881;28;20210;-54
2023/11/25 06:12:09;;;;;;;3.70;0.90;;;2.30;99.90;;;;;;5060590;28;20194;-48
2023/11/25 06:14:37;;;;;;;1.77;0.70;;;2.30;99.90;;;;;;5052550;28;20211;-55
2023/11/25 06:17:07;;;;;;;4.53;1.33;;;2.30;99.90;;;;;;5059880;28;20226;-54
2023/11/25 06:19:34;;;;;;;2.90;1.07;;;2.30;99.90;;;;;;5040602;28;20218;-52
2023/11/25 06:22:04;;;;;;;5.83;1.03;;;2.30;99.90;;;;;;5034816;28;20203;-55
2023/11/25 06:24:32;;;;;;;3.57;0.80;;;2.30;99.90;;;;;;5048687;28;20210;-49
2023/11/25 06:26:59;;;;;;;7.40;1.20;;;2.30;99.90;;;;;;5021395;28;20293;-49
2023/11/25 06:29:25;;;;;;;4.43;0.93;;;2.30;99.90;;;;;;5060210;28;20226;-52
2023/11/25 06:31:52;;;;;;;5.90;1.10;;;2.30;99.90;;;;;;5049235;28;20202;-55
2023/11/25 06:34:19;;;;;;;4.47;1.03;;;2.20;99.90;;;;;;5051299;28;20242;-52
2023/11/25 06:36:46;;;;;;;4.07;1.00;;;2.20;99.90;;;;;;5060443;28;20723;-53
2023/11/25 06:39:14;;;;;;;7.93;1.40;;;2.20;99.90;;;;;;5043971;28;20214;-52
2023/11/25 06:41:48;;;;;;;6.27;0.90;;;2.20;99.90;;;;;;5028352;28;20302;-50
2023/11/25 06:44:16;;;;;;;2.97;1.13;;;2.10;99.90;;;;;;5056846;28;20217;-48
2023/11/25 06:46:43;;;;;;;7.30;1.20;;;2.10;99.90;;;;;;5050428;28;20211;-53
2023/11/25 06:49:12;;;;;;;4.20;1.40;;;2.10;99.90;;;;;;5045875;28;20713;-50
2023/11/25 06:51:40;;;;;;;3.73;1.10;;;2.10;99.90;;;;;;5056667;28;20203;-50
2023/11/25 06:54:08;;;;;;;6.17;1.10;;;2.10;99.90;;;;;;5051029;28;21102;-50
2023/11/25 06:56:35;;;;;;;5.27;1.23;;;2.20;99.90;;;;;;5050580;28;20190;-51
2023/11/25 06:59:03;;;;;;;4.13;1.00;;;2.20;99.90;;;;;;5027544;28;20260;-48
2023/11/25 07:01:30;;;;;;;4.67;0.97;;;2.20;99.90;;;;;;5037927;28;20234;-49
2023/11/25 07:03:57;;;;;;;5.87;1.37;;;2.30;99.90;;;;;;5045885;28;20215;-52
2023/11/25 07:06:23;;;;;;;6.60;1.10;;;2.30;99.90;;;;;;5055864;28;20199;-49
2023/11/25 07:08:52;;;;;;;6.13;1.83;;;2.20;99.90;;;;;;5053284;28;20703;-45
2023/11/25 07:11:19;;;;;;;4.43;1.37;;;2.20;99.90;;;;;;5054978;28;20206;-53
2023/11/25 07:13:46;;;;;;;3.60;1.30;;;2.20;99.90;;;;;;5029925;28;20723;-50
2023/11/25 07:16:16;;;;;;;7.57;1.23;;;2.20;99.90;;;;;;5058874;28;20803;-53
2023/11/25 07:18:44;;;;;;;7.53;1.17;;;2.20;99.90;;;;;;5047064;28;20623;-48
2023/11/25 07:21:12;;;;;;;8.23;1.50;;;2.20;99.90;;;;;;5054442;28;20324;-51
2023/11/25 07:23:39;;;;;;;4.07;1.77;;;2.20;99.90;;;;;;5060483;28;21535;-49
2023/11/25 07:26:07;;;;;;;3.87;1.20;;;2.20;99.90;;;;;;5031948;28;20209;-49
2023/11/25 07:28:35;;;;;;;8.90;1.27;;;2.20;99.90;;;;;;5018413;28;20207;-50
2023/11/25 07:31:02;;;;;;;2.63;1.00;;;2.30;99.90;;;;;;5057198;28;20206;-48
2023/11/25 07:33:31;;;;;;;3.47;0.87;;;2.30;99.90;;;;;;5036909;28;20986;-49
2023/11/25 07:35:58;;;;;;;4.93;1.57;;;2.30;99.90;;;;;;5052695;28;20195;-47
2023/11/25 07:38:25;;;;;;;3.57;0.90;;;2.40;99.90;;;;;;5058095;28;20217;-48
2023/11/25 07:40:52;;;;;;;4.93;1.20;;;2.40;99.90;;;;;;5054751;28;20618;-54
2023/11/25 07:43:19;;;;;;;4.47;1.20;;;2.40;99.90;;;;;;5027710;28;20234;-53
2023/11/25 07:45:46;;;;;;;2.17;0.93;;;2.40;99.90;;;;;;5037579;28;20274;-51
2023/11/25 07:48:13;;;;;;;5.97;1.10;;;2.40;99.90;;;;;;5041387;28;20215;-53
2023/11/25 07:50:45;;;;;;;6.43;1.50;;;2.50;99.90;;;;;;5036469;28;20209;-49
2023/11/25 07:53:12;;;;;;;3.33;1.07;;;2.50;99.90;;;;;;5059638;28;20279;-50
2023/11/25 07:55:39;;;;;;;2.43;1.20;;;2.50;99.90;;;;;;5057544;28;20243;-49
2023/11/25 07:58:06;;;;;;;4.80;1.30;;;2.60;99.90;;;;;;5055775;28;20194;-51
2023/11/25 08:00:33;;;;;;;4.43;1.87;;;2.60;99.90;;;;;;5028035;28;20206;-49
2023/11/25 08:03:02;;;;;;;2.30;1.00;;;2.60;99.90;;;;;;5052911;28;20647;-50
2023/11/25 08:05:29;;;;;;;2.47;1.17;;;2.60;99.90;;;;;;5042412;28;20205;-51
2023/11/25 08:07:57;;;;;;;2.87;0.93;;;2.70;99.90;;;;;;5049348;28;20195;-53
2023/11/25 08:10:31;;;;;;;2.73;1.00;;;2.70;99.90;;;;;;5059476;28;20346;-52
2023/11/25 08:12:57;;;;;;;4.77;1.10;;;2.70;99.90;;;;;;5051070;28;20198;-52
2023/11/25 08:15:24;;;;;;;3.87;0.90;;;2.70;99.90;;;;;;5022364;28;20734;-51
2023/11/25 08:17:52;;;;;;;4.40;0.97;;;2.80;99.90;;;;;;5051497;28;20236;-48
2023/11/25 08:20:20;;;;;;;5.37;1.20;;;2.80;99.90;;;;;;5041159;28;20323;-54
2023/11/25 08:22:48;;;;;;;5.37;0.93;;;2.80;99.90;;;;;;5047241;28;20205;-52
2023/11/25 08:25:16;;;;;;;3.90;1.20;;;2.90;99.90;;;;;;5060279;28;20229;-51
2023/11/25 08:27:43;;;;;;;1.27;1.17;;;2.80;99.90;;;;;;5053237;28;20202;-46
2023/11/25 08:30:11;;;;;;;2.50;0.90;;;2.90;99.90;;;;;;5026539;28;20208;-52
2023/11/25 08:32:40;;;;;;;2.07;1.03;;;2.90;99.90;;;;;;5058482;28;20198;-50
2023/11/25 08:35:08;;;;;;;7.60;1.00;;;2.90;99.90;;;;;;5039017;28;20204;-50
2023/11/25 08:37:36;;;;;;;2.17;1.10;;;2.90;99.90;;;;;;5057902;28;20191;-51
2023/11/25 08:40:04;;;;;;;2.03;1.17;;;2.90;99.90;;;;;;5053536;28;20207;-48
2023/11/25 08:42:32;;;;;;;3.70;1.13;;;3.00;99.90;;;;;;5060680;28;20277;-51
2023/11/25 08:45:02;;;;;;;5.10;1.00;;;2.90;99.90;;;;;;5024991;28;20218;-50
2023/11/25 08:47:29;;;;;;;5.57;1.07;;;3.00;99.90;;;;;;5061214;28;20298;-51
2023/11/25 08:49:56;;;;;;;4.53;1.73;;;3.00;99.90;;;;;;5038594;28;20234;-49
2023/11/25 08:52:24;;;;;;;7.20;2.17;;;3.00;99.90;;;;;;5062906;28;20190;-53
2023/11/25 08:54:52;;;;;;;5.53;1.37;;;3.00;99.90;;;;;;5050422;28;20215;-51
2023/11/25 08:57:20;;;;;;;2.43;1.20;;;3.10;99.90;;;;;;5064230;28;20194;-52
2023/11/25 08:59:48;;;;;;;5.10;1.17;;;3.10;99.90;;;;;;5053434;28;20313;-50
2023/11/25 09:02:21;;;;;;;4.57;1.00;;;3.10;99.90;;;;;;5035308;28;20203;-54
2023/11/25 09:04:49;;;;;;;3.83;1.20;;;3.10;99.90;;;;;;5039245;28;20288;-51
2023/11/25 09:07:17;;;;;;;11.00;1.13;;;3.10;99.90;;;;;;5058190;28;20214;-49
2023/11/25 09:09:49;;;;;;;3.80;1.20;;;3.10;99.90;;;;;;5053089;28;20226;-50
2023/11/25 09:12:17;;;;;;;4.23;1.20;;;3.20;99.90;;;;;;5064663;28;20607;-49
2023/11/25 09:14:45;;;;;;;5.27;1.33;;;3.30;99.90;;;;;;5057506;28;20555;-51
2023/11/25 09:17:15;;;;;;;4.10;1.10;;;3.30;99.90;;;;;;5033415;28;20218;-52
2023/11/25 09:19:44;;;;;;;3.27;0.90;;;3.30;99.90;;;;;;5041642;28;20230;-49
2023/11/25 09:22:12;;;;;;;6.87;1.63;;;3.30;99.90;;;;;;5052718;28;20199;-51
2023/11/25 09:24:40;;;;;;;4.00;1.57;;;3.30;99.90;;;;;;5048296;28;20222;-55
2023/11/25 09:27:07;;;;;;;5.10;1.50;;;3.30;99.90;;;;;;5060574;28;20603;-53
2023/11/25 09:29:35;;;;;;;7.80;2.20;;;3.30;99.90;;;;;;5057277;28;20236;-53
2023/11/25 09:32:02;;;;;;;6.57;2.17;;;3.30;99.90;;;;;;5057351;28;20726;-47
2023/11/25 09:34:30;;;;;;;3.03;1.10;;;3.40;99.90;;;;;;5032168;28;20226;-52
2023/11/25 09:36:57;;;;;;;5.33;1.37;;;3.50;99.90;;;;;;5047090;28;20203;-50
2023/11/25 09:39:24;;;;;;;6.43;1.23;;;3.50;99.90;;;;;;5054157;28;20218;-48
2023/11/25 09:41:51;;;;;;;6.03;1.73;;;3.50;99.90;;;;;;5061545;28;20187;-49
2023/11/25 09:44:20;;;;;;;5.23;1.40;;;3.50;99.90;;;;;;5063698;28;20639;-49
2023/11/25 09:46:50;;;;;;;4.60;0.93;;;3.60;99.90;;;;;;5054174;28;20202;-50
2023/11/25 09:49:17;;;;;;;3.90;1.13;;;3.60;99.90;;;;;;5031871;28;20909;-50
2023/11/25 09:51:47;;;;;;;6.70;1.17;;;3.70;99.90;;;;;;5039007;28;20272;-51
2023/11/25 09:54:20;;;;;;;3.20;1.10;;;3.70;99.90;;;;;;5055642;28;20253;-47
2023/11/25 09:56:50;;;;;;;5.90;1.50;;;3.70;99.90;;;;;;5052038;28;20262;-48
2023/11/25 09:59:17;;;;;;;6.73;1.63;;;3.80;99.90;;;;;;5063550;28;20245;-47
2023/11/25 10:01:44;;;;;;;5.30;2.00;;;3.80;99.90;;;;;;5053393;28;20262;-46
2023/11/25 10:04:13;;;;;;;7.17;1.43;;;3.90;99.90;;;;;;5060821;28;20268;-48
2023/11/25 10:06:40;;;;;;;6.30;1.27;;;3.90;99.90;;;;;;5036262;28;20211;-49
2023/11/25 10:09:10;;;;;;;5.72;1.50;;;3.90;99.90;;;;;;5054079;28;20515;-47
2023/11/25 10:11:42;;;;;;;6.30;1.50;;;4.00;99.90;;;;;;5051615;28;20206;-51
2023/11/25 10:14:13;;;;;;;8.43;1.30;;;4.00;99.90;;;;;;5058963;28;20218;-49
2023/11/25 10:16:43;;;;;;;1.57;0.90;;;4.00;99.90;;;;;;5053213;28;20252;-53
2023/11/25 10:19:19;;;;;;;5.53;1.10;;;4.10;99.90;;;;;;5060994;28;20735;-49
2023/11/25 10:21:47;;;;;;;6.47;1.50;;;4.10;99.90;;;;;;5029766;28;20873;-47
2023/11/25 10:24:15;;;;;;;4.30;1.07;;;4.20;99.90;;;;;;5051701;28;20219;-48
2023/11/25 10:26:43;;;;;;;5.87;1.40;;;4.20;99.90;;;;;;5049645;28;20210;-47
2023/11/25 10:29:11;;;;;;;4.67;1.37;;;4.20;99.90;;;;;;5059688;28;20224;-50
2023/11/25 10:31:42;;;;;;;2.90;1.40;;;4.30;99.90;;;;;;5059629;28;20219;-47
2023/11/25 10:34:11;;;;;;;1.83;1.10;;;4.30;99.90;;;;;;5055460;28;20685;-48
2023/11/25 10:36:38;;;;;;;3.20;1.40;;;4.30;99.90;;;;;;5033209;28;20198;-49
2023/11/25 10:39:08;;;;;;;2.90;1.10;;;4.40;99.90;;;;;;5048843;28;20264;-47
2023/11/25 10:41:38;;;;;;;3.40;1.10;;;4.40;99.90;;;;;;5053546;28;20218;-52
2023/11/25 10:44:06;;;;;;;6.00;1.40;;;4.50;99.90;;;;;;5062933;28;20219;-52
2023/11/25 10:46:41;;;;;;;3.50;1.07;;;4.50;99.90;;;;;;5060094;28;20657;-52
2023/11/25 10:49:09;;;;;;;4.10;0.90;;;4.60;99.90;;;;;;5048852;28;20900;-48
2023/11/25 10:51:38;;;;;;;3.07;1.13;;;4.60;99.90;;;;;;5061516;28;20193;-50
2023/11/25 10:54:07;;;;;;;5.57;1.50;;;4.60;99.90;;;;;;5013230;28;20227;-52
2023/11/25 10:56:37;;;;;;;5.83;1.03;;;4.70;99.90;;;;;;5061567;28;20277;-51
2023/11/25 10:59:05;;;;;;;5.00;1.43;;;4.70;99.90;;;;;;5047901;28;20209;-49
2023/11/25 11:01:33;;;;;;;5.33;1.07;;;4.80;99.90;;;;;;5061476;28;20201;-51
2023/11/25 11:04:05;;;;;;;2.70;1.17;;;4.80;99.90;;;;;;5051570;28;20779;-53
2023/11/25 11:06:42;;;;;;;4.30;1.07;;;4.80;99.90;;;;;;5057329;28;20205;-49
2023/11/25 11:09:16;;;;;;;7.17;1.00;;;4.90;99.90;;;;;;5028042;28;20197;-50
2023/11/25 11:11:48;;;;;;;3.37;1.10;;;4.90;99.90;;;;;;5051193;28;20209;-52
2023/11/25 11:14:17;;;;;;;4.40;1.00;;;5.00;99.90;;;;;;5051397;28;20218;-48
2023/11/25 11:16:51;;;;;;;4.07;1.50;;;5.00;99.90;;;;;;5061481;28;20253;-49
2023/11/25 11:19:23;;;;;;;6.13;1.37;;;5.10;99.90;;;;;;5048624;28;20234;-52
2023/11/25 11:21:53;;;;;;;3.50;1.07;;;5.10;99.90;;;;;;5058124;28;20205;-53
2023/11/25 11:24:24;;;;;;;3.57;1.20;;;5.10;99.90;;;;;;5027460;28;20225;-51
2023/11/25 11:27:01;;;;;;;3.23;1.17;;;5.20;99.90;;;;;;5048959;28;20676;-53
2023/11/25 11:29:40;;;;;;;1.77;0.77;;;5.20;99.90;;;;;;5051854;28;20669;-51
2023/11/25 11:32:08;;;;;;;3.70;1.50;;;5.20;99.90;;;;;;5056443;28;20287;-52
2023/11/25 11:34:36;;;;;;;3.23;0.90;;;5.20;99.90;;;;;;5058368;28;20226;-49
2023/11/25 11:37:06;;;;;;;2.97;1.30;;;5.20;99.90;;;;;;5047763;28;20202;-47
2023/11/25 11:39:58;;;;;;;2.93;0.97;;;5.30;99.90;;;;;;5027667;28;20253;-50
2023/11/25 11:42:32;;;;;;;2.97;1.17;;;5.20;99.90;;;;;;5047492;28;20202;-52
2023/11/25 11:45:15;;;;;;;4.13;1.30;;;5.20;99.90;;;;;;5044440;28;20229;-54
2023/11/25 11:47:45;;;;;;;4.60;1.40;;;5.20;99.90;;;;;;5054846;28;20206;-49
2023/11/25 11:50:17;;;;;;;4.37;1.30;;;5.20;99.90;;;;;;5050580;28;20238;-47
2023/11/25 11:52:49;;;;;;;5.17;1.67;;;5.30;99.90;;;;;;5057033;28;20249;-52
2023/11/25 11:55:39;;;;;;;5.57;1.30;;;5.30;99.90;;;;;;5025696;28;21080;-50
2023/11/25 11:58:09;;;;;;;1.57;1.03;;;5.30;99.90;;;;;;5045659;28;20841;-47
2023/11/25 12:01:07;;;;;;;4.60;1.80;;;5.40;99.90;;;;;;5053094;28;20276;-48
2023/11/25 12:03:36;;;;;;;2.77;1.20;;;5.40;99.90;;;;;;5057598;28;20237;-50
2023/11/25 12:06:05;;;;;;;5.13;1.27;;;5.40;99.90;;;;;;5048877;28;20264;-49
2023/11/25 12:08:34;;;;;;;4.43;1.10;;;5.40;99.90;;;;;;5060325;28;20198;-52
2023/11/25 12:11:04;;;;;;;2.97;1.30;;;5.40;99.90;;;;;;5021536;28;20207;-53
2023/11/25 12:13:36;;;;;;;2.57;1.30;;;5.30;99.90;;;;;;5050169;28;20233;-52
2023/11/25 12:16:03;;;;;;;3.53;1.37;;;5.40;99.90;;;;;;5052775;28;20285;-50
2023/11/25 12:18:32;;;;;;;2.80;1.10;;;5.40;99.90;;;;;;5065773;28;20248;-51
2023/11/25 12:21:01;;;;;;;6.00;1.37;;;5.40;99.90;;;;;;5056235;28;20218;-53
2023/11/25 12:23:29;;;;;;;6.63;1.50;;;5.40;99.90;;;;;;5054888;28;20252;-50
2023/11/25 12:25:57;;;;;;;4.57;1.20;;;5.50;99.90;;;;;;5036290;28;20322;-51
2023/11/25 12:28:24;;;;;;;4.17;1.53;;;5.60;99.90;;;;;;5055456;28;20198;-49
2023/11/25 12:30:53;;;;;;;4.43;2.17;;;5.70;99.90;;;;;;5054788;28;20213;-49
2023/11/25 12:33:20;;;;;;;2.97;1.30;;;5.70;99.90;;;;;;5057610;28;20215;-51
2023/11/25 12:35:47;;;;;;;3.00;1.00;;;5.80;99.90;;;;;;5062274;28;20190;-49
2023/11/25 12:38:15;;;;;;;2.50;1.27;;;5.90;99.90;;;;;;5059427;28;20206;-49
2023/11/25 12:40:44;;;;;;;5.23;1.33;;;5.80;99.90;;;;;;5032709;28;20222;-49
2023/11/25 12:43:11;;;;;;;1.90;0.70;;;5.80;99.90;;;;;;5056182;28;20305;-48
2023/11/25 12:45:40;;;;;;;3.77;1.07;;;5.80;99.90;;;;;;5053817;28;20690;-52
2023/11/25 12:48:11;;;;;;;3.13;0.97;;;5.80;99.90;;;;;;5065220;28;20587;-47
2023/11/25 12:50:59;;;;;;;5.97;1.40;;;5.80;99.90;;;;;;5061552;28;20269;-49
2023/11/25 12:53:26;;;;;;;2.23;1.10;;;5.70;99.90;;;;;;5054138;28;20214;-51
2023/11/25 12:55:53;;;;;;;5.37;1.33;;;5.70;99.90;;;;;;5032170;28;20202;-49
2023/11/25 12:58:20;;;;;;;4.47;1.37;;;5.70;99.90;;;;;;5064693;28;20202;-50
2023/11/25 13:00:49;;;;;;;3.80;0.83;;;5.60;99.90;;;;;;5053448;28;20289;-49
2023/11/25 13:03:25;;;;;;;3.90;0.90;;;5.60;99.90;;;;;;5056445;28;20235;-47